This is the latest recevied weather packets stored in our database for station/object EA6MW-10. If no packets are shown the sender has not sent any weather packets the latest 10 day(s).
| Time | Temp. | Humidity | Pressure | Rain* | Wind** | Luminosity | Snow |
|---|---|---|---|---|---|---|---|
| 1777958652 | 16.67° C | 75% | 1012.6 hPa | - | - | - | - |
| 1777957752 | 16.11° C | 78% | 1012.5 hPa | - | - | - | - |
| 1777956852 | 16.11° C | 76% | 1012.6 hPa | - | - | - | - |
| 1777955952 | 15.56° C | 79% | 1012.6 hPa | - | - | - | - |
| 1777955052 | 16.11° C | 80% | 1012.7 hPa | - | - | - | - |
| 1777954152 | 16.11° C | 80% | 1012.9 hPa | - | - | - | - |
| 1777953251 | 16.67° C | 79% | 1012.9 hPa | - | - | - | - |
| 1777952351 | 16.11° C | 80% | 1012.9 hPa | - | - | - | - |
| 1777951451 | 15.56° C | 81% | 1013 hPa | - | - | - | - |
| 1777950551 | 15° C | 82% | 1012.9 hPa | - | - | - | - |
| 1777949651 | 15.56° C | 82% | 1012.8 hPa | - | - | - | - |
| 1777948750 | 15.56° C | 82% | 1012.8 hPa | - | - | - | - |
| 1777947850 | 16.11° C | 81% | 1013 hPa | - | - | - | - |
| 1777946950 | 16.11° C | 79% | 1013.1 hPa | - | - | - | - |
| 1777946049 | 16.67° C | 79% | 1013.1 hPa | - | - | - | - |
| 1777945149 | 17.22° C | 78% | 1013.2 hPa | - | - | - | - |
| 1777944249 | 17.22° C | 79% | 1013.1 hPa | - | - | - | - |
| 1777943348 | 16.67° C | 79% | 1013.2 hPa | - | - | - | - |
| 1777942448 | 17.22° C | 77% | 1013.4 hPa | - | - | - | - |
| 1777941548 | 17.22° C | 77% | 1013.6 hPa | - | - | - | - |
| 1777940647 | 16.67° C | 80% | 1013.9 hPa | - | - | - | - |
| 1777939747 | 16.11° C | 85% | 1014.1 hPa | - | - | - | - |
| 1777938847 | 16.67° C | 84% | 1014.1 hPa | - | - | - | - |
| 1777937947 | 16.67° C | 82% | 1014.2 hPa | - | - | - | - |
| 1777937047 | 16.67° C | 83% | 1014.3 hPa | - | - | - | - |
* Rain since midnight (hover to see other rain measurements)
** Current wind speed in m/s (hover to see current wind gust speed)